VJT710 LGKR-LSZA
Flight info
| Callsign | VJT710 |
|---|---|
| Flight time | 1h 39m |
| Altitude | 43000 |
| Route | OLGAT DCT EVCIT DCT ERITU DCT GIPUK DCT LEGLO |
| Aircraft | C700/M-SBDGHM1RWXY/LB2 |
Departure
| Time | 2026-05-06 07:58 |
|---|---|
| Airport | Corfu Ioannis Kapodistrias International Airport (LGKR) |
Arrival
| Time | 2026-05-06 09:37 |
|---|---|
| Airport | Lugano Airport (LSZA) |
| Time | Latitude | Longitude | Altitude | Speed | Heading |
|---|---|---|---|---|---|
| 2026-05-06 07:35 | 39.61021 | 19.91228 | 13 ft | 0 kts | 78° |
| 2026-05-06 07:53 | 39.61018 | 19.91206 | 13 ft | 4 kts | 80° |
| 2026-05-06 07:53 | 39.61012 | 19.91172 | 13 ft | 4 kts | 73° |
| 2026-05-06 07:53 | 39.61000 | 19.91144 | 13 ft | 4 kts | 26° |
| 2026-05-06 07:53 | 39.60986 | 19.91141 | 13 ft | 1 kts | 349° |
| 2026-05-06 07:54 | 39.60984 | 19.91142 | 13 ft | 0 kts | 349° |
| 2026-05-06 07:56 | 39.60988 | 19.91141 | 13 ft | 3 kts | 349° |
| 2026-05-06 07:56 | 39.61048 | 19.91125 | 13 ft | 12 kts | 348° |
| 2026-05-06 07:56 | 39.61129 | 19.91104 | 13 ft | 12 kts | 348° |
| 2026-05-06 07:57 | 39.61207 | 19.91070 | 14 ft | 13 kts | 308° |
| 2026-05-06 07:57 | 39.61219 | 19.90969 | 15 ft | 12 kts | 227° |
| 2026-05-06 07:57 | 39.61135 | 19.90972 | 15 ft | 20 kts | 169° |
| 2026-05-06 07:57 | 39.60659 | 19.91094 | 13 ft | 122 kts | 168° |
| 2026-05-06 07:58 | 39.59550 | 19.91388 | 360 ft | 194 kts | 167° |
| 2026-05-06 07:58 | 39.58098 | 19.91864 | 1352 ft | 229 kts | 160° |
| 2026-05-06 07:58 | 39.56748 | 19.93142 | 2735 ft | 253 kts | 129° |
| 2026-05-06 07:58 | 39.56100 | 19.95156 | 3644 ft | 238 kts | 98° |
| 2026-05-06 07:59 | 39.56351 | 19.97211 | 4538 ft | 234 kts | 66° |
| 2026-05-06 07:59 | 39.57381 | 19.98827 | 5427 ft | 238 kts | 34° |
| 2026-05-06 07:59 | 39.58901 | 19.99517 | 6265 ft | 232 kts | 1° |
| 2026-05-06 07:59 | 39.60438 | 19.99043 | 7194 ft | 225 kts | 328° |
| 2026-05-06 08:00 | 39.61631 | 19.97681 | 8180 ft | 230 kts | 308° |
| 2026-05-06 08:00 | 39.62325 | 19.95881 | 9190 ft | 231 kts | 283° |
| 2026-05-06 08:00 | 39.62402 | 19.93779 | 10201 ft | 243 kts | 272° |
| 2026-05-06 08:00 | 39.62925 | 19.91559 | 11177 ft | 271 kts | 300° |
| 2026-05-06 08:01 | 39.64168 | 19.89560 | 12193 ft | 299 kts | 310° |
| 2026-05-06 08:01 | 39.65618 | 19.87465 | 13211 ft | 325 kts | 311° |
| 2026-05-06 08:01 | 39.67168 | 19.85217 | 14181 ft | 349 kts | 310° |
| 2026-05-06 08:01 | 39.68784 | 19.82837 | 15648 ft | 353 kts | 310° |
| 2026-05-06 08:02 | 39.70426 | 19.80418 | 17096 ft | 360 kts | 310° |
| 2026-05-06 08:02 | 39.72106 | 19.77954 | 18487 ft | 367 kts | 310° |
| 2026-05-06 08:02 | 39.73814 | 19.75447 | 19685 ft | 373 kts | 310° |
| 2026-05-06 08:02 | 39.75541 | 19.72904 | 20922 ft | 378 kts | 310° |
| 2026-05-06 08:03 | 39.77294 | 19.70319 | 22087 ft | 384 kts | 310° |
| 2026-05-06 08:03 | 39.79022 | 19.67772 | 23192 ft | 389 kts | 310° |
| 2026-05-06 08:03 | 39.80828 | 19.65110 | 24213 ft | 395 kts | 310° |
| 2026-05-06 08:03 | 39.82668 | 19.62392 | 25060 ft | 403 kts | 310° |
| 2026-05-06 08:04 | 39.84530 | 19.59640 | 25862 ft | 409 kts | 310° |
| 2026-05-06 08:04 | 39.86423 | 19.56840 | 26610 ft | 415 kts | 310° |
| 2026-05-06 08:04 | 39.88340 | 19.54002 | 27301 ft | 420 kts | 310° |
| 2026-05-06 08:04 | 39.90280 | 19.51124 | 27942 ft | 425 kts | 310° |
| 2026-05-06 08:05 | 39.92244 | 19.48211 | 28543 ft | 430 kts | 310° |
| 2026-05-06 08:05 | 39.94231 | 19.45261 | 29121 ft | 435 kts | 310° |
| 2026-05-06 08:05 | 39.96236 | 19.42281 | 29678 ft | 439 kts | 309° |
| 2026-05-06 08:05 | 39.98264 | 19.39263 | 30214 ft | 443 kts | 309° |
| 2026-05-06 08:06 | 40.00306 | 19.36223 | 30690 ft | 447 kts | 309° |
| 2026-05-06 08:06 | 40.02335 | 19.33197 | 31183 ft | 449 kts | 309° |
| 2026-05-06 08:06 | 40.04412 | 19.30100 | 31832 ft | 447 kts | 309° |
| 2026-05-06 08:06 | 40.06425 | 19.27094 | 32440 ft | 445 kts | 309° |
| 2026-05-06 08:07 | 40.08458 | 19.24053 | 33037 ft | 444 kts | 309° |
| 2026-05-06 08:07 | 40.10482 | 19.21015 | 33633 ft | 442 kts | 309° |
| 2026-05-06 08:07 | 40.12493 | 19.17975 | 34210 ft | 441 kts | 309° |
| 2026-05-06 08:07 | 40.14497 | 19.14939 | 34536 ft | 444 kts | 309° |
| 2026-05-06 08:08 | 40.16518 | 19.11874 | 34778 ft | 443 kts | 309° |
| 2026-05-06 08:08 | 40.18509 | 19.08857 | 35137 ft | 432 kts | 309° |
| 2026-05-06 08:08 | 40.20459 | 19.05906 | 35851 ft | 425 kts | 309° |
| 2026-05-06 08:08 | 40.22379 | 19.03007 | 36586 ft | 418 kts | 309° |
| 2026-05-06 08:09 | 40.24271 | 19.00156 | 37337 ft | 410 kts | 309° |
| 2026-05-06 08:09 | 40.26166 | 18.97406 | 38125 ft | 403 kts | 311° |
| 2026-05-06 08:09 | 40.27476 | 18.95700 | 38584 ft | 400 kts | 313° |
| 2026-05-06 08:09 | 40.29444 | 18.93147 | 39058 ft | 396 kts | 311° |
| 2026-05-06 08:10 | 40.31311 | 18.90502 | 39464 ft | 394 kts | 309° |
| 2026-05-06 08:10 | 40.33749 | 18.86951 | 39800 ft | 398 kts | 310° |
| 2026-05-06 08:10 | 40.35029 | 18.85162 | 39962 ft | 400 kts | 311° |
| 2026-05-06 08:10 | 40.36957 | 18.82513 | 40193 ft | 402 kts | 311° |
| 2026-05-06 08:11 | 40.38873 | 18.79831 | 40433 ft | 404 kts | 310° |
| 2026-05-06 08:11 | 40.40779 | 18.77120 | 40677 ft | 405 kts | 310° |
| 2026-05-06 08:11 | 40.42698 | 18.74404 | 40921 ft | 406 kts | 310° |
| 2026-05-06 08:11 | 40.44634 | 18.71687 | 41176 ft | 407 kts | 311° |
| 2026-05-06 08:12 | 40.46570 | 18.68961 | 41426 ft | 408 kts | 310° |
| 2026-05-06 08:12 | 40.48478 | 18.66261 | 41676 ft | 409 kts | 310° |
| 2026-05-06 08:12 | 40.50414 | 18.63518 | 41938 ft | 409 kts | 310° |
| 2026-05-06 08:12 | 40.52357 | 18.60770 | 42201 ft | 410 kts | 310° |
| 2026-05-06 08:13 | 40.54298 | 18.58022 | 42465 ft | 410 kts | 310° |
| 2026-05-06 08:13 | 40.56237 | 18.55272 | 42734 ft | 410 kts | 310° |
| 2026-05-06 08:13 | 40.58172 | 18.52524 | 43006 ft | 409 kts | 310° |
| 2026-05-06 08:13 | 40.60117 | 18.49760 | 43077 ft | 414 kts | 310° |
| 2026-05-06 08:14 | 40.64084 | 18.44116 | 43078 ft | 425 kts | 310° |
| 2026-05-06 08:14 | 40.68164 | 18.38305 | 43086 ft | 436 kts | 310° |
| 2026-05-06 08:15 | 40.72325 | 18.32357 | 43081 ft | 446 kts | 310° |
| 2026-05-06 08:15 | 40.76517 | 18.26363 | 43074 ft | 445 kts | 310° |
| 2026-05-06 08:16 | 40.80684 | 18.20361 | 43072 ft | 443 kts | 310° |
| 2026-05-06 08:16 | 40.84885 | 18.14321 | 43069 ft | 448 kts | 310° |
| 2026-05-06 08:17 | 40.89091 | 18.08276 | 43061 ft | 445 kts | 310° |
| 2026-05-06 08:17 | 40.93266 | 18.02246 | 43064 ft | 445 kts | 310° |
| 2026-05-06 08:18 | 40.97469 | 17.96176 | 43069 ft | 449 kts | 310° |
| 2026-05-06 08:18 | 41.01674 | 17.90085 | 43067 ft | 447 kts | 310° |
| 2026-05-06 08:19 | 41.05856 | 17.84017 | 43067 ft | 445 kts | 310° |
| 2026-05-06 08:19 | 41.10025 | 17.77955 | 43061 ft | 445 kts | 310° |
| 2026-05-06 08:20 | 41.14195 | 17.71879 | 43056 ft | 450 kts | 310° |
| 2026-05-06 08:20 | 41.18404 | 17.65735 | 43056 ft | 448 kts | 310° |
| 2026-05-06 08:21 | 41.22580 | 17.59624 | 43055 ft | 446 kts | 310° |
| 2026-05-06 08:21 | 41.26747 | 17.53516 | 43056 ft | 447 kts | 310° |
| 2026-05-06 08:22 | 41.30950 | 17.47339 | 43050 ft | 451 kts | 309° |
| 2026-05-06 08:22 | 41.35123 | 17.41199 | 43051 ft | 449 kts | 309° |
| 2026-05-06 08:23 | 41.39306 | 17.35027 | 43048 ft | 447 kts | 309° |
| 2026-05-06 08:23 | 41.43473 | 17.28868 | 43046 ft | 448 kts | 309° |
| 2026-05-06 08:24 | 41.47669 | 17.22650 | 43043 ft | 453 kts | 309° |
| 2026-05-06 08:24 | 41.51794 | 17.16531 | 43040 ft | 450 kts | 309° |
| 2026-05-06 08:25 | 41.55951 | 17.10346 | 43040 ft | 448 kts | 309° |
| 2026-05-06 08:25 | 41.60121 | 17.04131 | 43036 ft | 451 kts | 309° |
| 2026-05-06 08:26 | 41.64323 | 16.97853 | 43037 ft | 454 kts | 309° |
| 2026-05-06 08:26 | 41.68517 | 16.91578 | 43032 ft | 451 kts | 309° |
| 2026-05-06 08:27 | 41.72686 | 16.85322 | 43033 ft | 449 kts | 309° |
| 2026-05-06 08:27 | 41.76829 | 16.79094 | 43027 ft | 453 kts | 309° |
| 2026-05-06 08:28 | 41.81010 | 16.72732 | 43024 ft | 454 kts | 308° |
| 2026-05-06 08:28 | 41.85156 | 16.66372 | 43028 ft | 451 kts | 308° |
| 2026-05-06 08:29 | 41.89288 | 16.60048 | 43022 ft | 449 kts | 308° |
| 2026-05-06 08:29 | 41.93418 | 16.53693 | 43023 ft | 454 kts | 308° |
| 2026-05-06 08:30 | 41.97551 | 16.47337 | 43022 ft | 453 kts | 308° |
| 2026-05-06 08:30 | 42.01674 | 16.40971 | 43014 ft | 451 kts | 308° |
| 2026-05-06 08:31 | 42.05785 | 16.34615 | 43014 ft | 450 kts | 308° |
| 2026-05-06 08:31 | 42.09916 | 16.28210 | 43014 ft | 455 kts | 308° |
| 2026-05-06 08:32 | 42.14058 | 16.21781 | 43012 ft | 453 kts | 308° |
| 2026-05-06 08:32 | 42.18180 | 16.15363 | 43000 ft | 452 kts | 308° |
| 2026-05-06 08:33 | 42.22268 | 16.08987 | 43012 ft | 451 kts | 308° |
| 2026-05-06 08:33 | 42.26366 | 16.02581 | 42994 ft | 452 kts | 308° |
| 2026-05-06 08:34 | 42.32564 | 15.92866 | 43000 ft | 455 kts | 307° |
| 2026-05-06 08:35 | 42.36676 | 15.86403 | 42992 ft | 452 kts | 307° |
| 2026-05-06 08:35 | 42.40764 | 15.79963 | 42996 ft | 451 kts | 307° |
| 2026-05-06 08:36 | 42.44846 | 15.73517 | 43000 ft | 456 kts | 307° |
| 2026-05-06 08:36 | 42.48969 | 15.66997 | 42996 ft | 454 kts | 307° |
| 2026-05-06 08:37 | 42.53064 | 15.60503 | 42998 ft | 452 kts | 307° |
| 2026-05-06 08:37 | 42.57151 | 15.54007 | 42995 ft | 453 kts | 307° |
| 2026-05-06 08:38 | 42.61259 | 15.47464 | 42993 ft | 457 kts | 307° |
| 2026-05-06 08:38 | 42.65376 | 15.40894 | 42995 ft | 455 kts | 307° |
| 2026-05-06 08:39 | 42.69471 | 15.34341 | 42993 ft | 454 kts | 307° |
| 2026-05-06 08:39 | 42.73528 | 15.27837 | 42991 ft | 453 kts | 307° |
| 2026-05-06 08:40 | 42.77600 | 15.21294 | 42988 ft | 454 kts | 307° |
| 2026-05-06 08:40 | 42.81701 | 15.14687 | 42988 ft | 458 kts | 307° |
| 2026-05-06 08:41 | 42.85809 | 15.08059 | 42984 ft | 456 kts | 307° |
| 2026-05-06 08:41 | 42.89895 | 15.01446 | 42984 ft | 455 kts | 306° |
| 2026-05-06 08:42 | 42.93965 | 14.94848 | 42982 ft | 454 kts | 306° |
| 2026-05-06 08:42 | 42.98027 | 14.88246 | 42980 ft | 454 kts | 306° |
| 2026-05-06 08:43 | 43.02107 | 14.81599 | 42983 ft | 459 kts | 306° |
| 2026-05-06 08:43 | 43.06177 | 14.74959 | 42980 ft | 458 kts | 306° |
| 2026-05-06 08:44 | 43.10254 | 14.68284 | 42976 ft | 456 kts | 306° |
| 2026-05-06 08:44 | 43.14324 | 14.61612 | 42979 ft | 455 kts | 306° |
| 2026-05-06 08:45 | 43.18380 | 14.54942 | 42980 ft | 457 kts | 306° |
| 2026-05-06 08:45 | 43.22471 | 14.48203 | 42976 ft | 461 kts | 306° |
| 2026-05-06 08:46 | 43.26563 | 14.41449 | 42979 ft | 458 kts | 306° |
| 2026-05-06 08:46 | 43.30605 | 14.34756 | 42978 ft | 457 kts | 306° |
| 2026-05-06 08:47 | 43.34651 | 14.28044 | 42975 ft | 457 kts | 306° |
| 2026-05-06 08:47 | 43.38725 | 14.21268 | 42976 ft | 461 kts | 306° |
| 2026-05-06 08:48 | 43.42816 | 14.14454 | 42973 ft | 460 kts | 306° |
| 2026-05-06 08:48 | 43.46718 | 14.07535 | 42977 ft | 456 kts | 303° |
| 2026-05-06 08:49 | 43.50542 | 14.00591 | 42975 ft | 454 kts | 303° |
| 2026-05-06 08:49 | 43.54361 | 13.93640 | 42974 ft | 456 kts | 303° |
| 2026-05-06 08:50 | 43.58200 | 13.86632 | 42972 ft | 458 kts | 303° |
| 2026-05-06 08:50 | 43.62005 | 13.79678 | 42970 ft | 456 kts | 303° |
| 2026-05-06 08:51 | 43.65804 | 13.72708 | 42973 ft | 453 kts | 303° |
| 2026-05-06 08:51 | 43.69584 | 13.65762 | 42971 ft | 452 kts | 303° |
| 2026-05-06 08:52 | 43.73373 | 13.58779 | 42977 ft | 456 kts | 303° |
| 2026-05-06 08:52 | 43.77185 | 13.51742 | 42966 ft | 456 kts | 303° |
| 2026-05-06 08:53 | 43.80979 | 13.44719 | 42970 ft | 454 kts | 303° |
| 2026-05-06 08:53 | 43.84754 | 13.37713 | 42966 ft | 453 kts | 302° |
| 2026-05-06 08:54 | 43.88512 | 13.30723 | 42960 ft | 452 kts | 302° |
| 2026-05-06 08:54 | 43.92283 | 13.23690 | 42956 ft | 457 kts | 302° |
| 2026-05-06 08:55 | 43.96060 | 13.16634 | 42951 ft | 457 kts | 302° |
| 2026-05-06 08:55 | 43.99832 | 13.09566 | 42951 ft | 454 kts | 302° |
| 2026-05-06 08:56 | 44.03588 | 13.02511 | 42949 ft | 455 kts | 302° |
| 2026-05-06 08:56 | 44.07368 | 12.95392 | 42944 ft | 460 kts | 302° |
| 2026-05-06 08:57 | 44.10519 | 12.89452 | 42944 ft | 457 kts | 302° |
| 2026-05-06 08:57 | 44.14881 | 12.81198 | 42947 ft | 456 kts | 302° |
| 2026-05-06 08:58 | 44.18658 | 12.74034 | 42950 ft | 461 kts | 302° |
| 2026-05-06 08:58 | 44.21806 | 12.68055 | 42951 ft | 459 kts | 302° |
| 2026-05-06 08:59 | 44.25560 | 12.60899 | 42941 ft | 457 kts | 302° |
| 2026-05-06 08:59 | 44.29312 | 12.53734 | 42947 ft | 459 kts | 302° |
| 2026-05-06 09:00 | 44.33090 | 12.46500 | 42953 ft | 462 kts | 302° |
| 2026-05-06 09:00 | 44.36868 | 12.39251 | 42953 ft | 460 kts | 302° |
| 2026-05-06 09:01 | 44.40620 | 12.32029 | 42951 ft | 458 kts | 302° |
| 2026-05-06 09:01 | 44.44363 | 12.24809 | 42948 ft | 459 kts | 302° |
| 2026-05-06 09:02 | 44.48120 | 12.17542 | 42944 ft | 462 kts | 302° |
| 2026-05-06 09:02 | 44.51896 | 12.10224 | 42941 ft | 463 kts | 302° |
| 2026-05-06 09:03 | 44.55626 | 12.02975 | 42943 ft | 460 kts | 302° |
| 2026-05-06 09:03 | 44.59359 | 11.95700 | 42948 ft | 458 kts | 302° |
| 2026-05-06 09:04 | 44.63026 | 11.88357 | 42949 ft | 460 kts | 301° |
| 2026-05-06 09:04 | 44.66719 | 11.80969 | 42947 ft | 464 kts | 301° |
| 2026-05-06 09:05 | 44.70422 | 11.73552 | 42947 ft | 461 kts | 301° |
| 2026-05-06 09:05 | 44.74087 | 11.66172 | 42945 ft | 459 kts | 301° |
| 2026-05-06 09:06 | 44.77739 | 11.58818 | 42937 ft | 457 kts | 301° |
| 2026-05-06 09:06 | 44.81347 | 11.51518 | 42942 ft | 458 kts | 301° |
| 2026-05-06 09:07 | 44.84994 | 11.44132 | 42944 ft | 461 kts | 301° |
| 2026-05-06 09:07 | 44.88661 | 11.36680 | 42950 ft | 463 kts | 301° |
| 2026-05-06 09:08 | 44.92310 | 11.29252 | 42929 ft | 458 kts | 300° |
| 2026-05-06 09:08 | 44.95934 | 11.21843 | 42928 ft | 461 kts | 300° |
| 2026-05-06 09:09 | 44.99592 | 11.14358 | 42926 ft | 462 kts | 300° |
| 2026-05-06 09:09 | 45.03209 | 11.06935 | 42930 ft | 460 kts | 300° |
| 2026-05-06 09:10 | 45.06826 | 10.99487 | 42923 ft | 458 kts | 300° |
| 2026-05-06 09:10 | 45.10430 | 10.92052 | 42930 ft | 458 kts | 300° |
| 2026-05-06 09:11 | 45.14050 | 10.84559 | 42918 ft | 463 kts | 300° |
| 2026-05-06 09:11 | 45.17682 | 10.77031 | 42919 ft | 461 kts | 300° |
| 2026-05-06 09:12 | 45.21288 | 10.69528 | 42925 ft | 459 kts | 300° |
| 2026-05-06 09:12 | 45.23090 | 10.65773 | 42776 ft | 459 kts | 300° |
| 2026-05-06 09:12 | 45.24867 | 10.62073 | 42509 ft | 448 kts | 300° |
| 2026-05-06 09:12 | 45.26609 | 10.58436 | 42226 ft | 444 kts | 300° |
| 2026-05-06 09:13 | 45.28344 | 10.54794 | 41961 ft | 446 kts | 299° |
| 2026-05-06 09:13 | 45.30089 | 10.51133 | 41706 ft | 449 kts | 299° |
| 2026-05-06 09:13 | 45.31839 | 10.47470 | 41451 ft | 447 kts | 299° |
| 2026-05-06 09:13 | 45.33576 | 10.43831 | 41202 ft | 444 kts | 299° |
| 2026-05-06 09:14 | 45.35303 | 10.40197 | 40955 ft | 442 kts | 298° |
| 2026-05-06 09:14 | 45.37002 | 10.36611 | 40718 ft | 443 kts | 298° |
| 2026-05-06 09:14 | 45.38730 | 10.32967 | 40481 ft | 445 kts | 298° |
| 2026-05-06 09:15 | 45.40134 | 10.30008 | 40295 ft | 446 kts | 298° |
| 2026-05-06 09:15 | 45.41861 | 10.26363 | 40066 ft | 446 kts | 298° |
| 2026-05-06 09:15 | 45.43594 | 10.22697 | 39831 ft | 443 kts | 298° |
| 2026-05-06 09:15 | 45.45309 | 10.19063 | 39598 ft | 441 kts | 297° |
| 2026-05-06 09:16 | 45.47018 | 10.15435 | 39382 ft | 440 kts | 297° |
| 2026-05-06 09:16 | 45.48728 | 10.11801 | 39158 ft | 442 kts | 297° |
| 2026-05-06 09:16 | 45.50448 | 10.08142 | 38936 ft | 443 kts | 297° |
| 2026-05-06 09:16 | 45.52165 | 10.04487 | 38721 ft | 444 kts | 297° |
| 2026-05-06 09:17 | 45.53881 | 10.00832 | 38492 ft | 443 kts | 297° |
| 2026-05-06 09:17 | 45.55590 | 9.97187 | 38216 ft | 440 kts | 296° |
| 2026-05-06 09:17 | 45.57288 | 9.93554 | 37853 ft | 441 kts | 296° |
| 2026-05-06 09:17 | 45.58974 | 9.89937 | 37036 ft | 444 kts | 296° |
| 2026-05-06 09:18 | 45.60675 | 9.86305 | 36071 ft | 436 kts | 295° |
| 2026-05-06 09:18 | 45.62350 | 9.82724 | 35126 ft | 432 kts | 294° |
| 2026-05-06 09:18 | 45.63972 | 9.79121 | 34178 ft | 430 kts | 290° |
| 2026-05-06 09:18 | 45.65342 | 9.75369 | 33204 ft | 422 kts | 285° |
| 2026-05-06 09:19 | 45.66441 | 9.71556 | 32297 ft | 406 kts | 281° |
| 2026-05-06 09:19 | 45.67387 | 9.67881 | 31572 ft | 380 kts | 281° |
| 2026-05-06 09:19 | 45.68270 | 9.64405 | 30753 ft | 364 kts | 279° |
| 2026-05-06 09:19 | 45.69075 | 9.61031 | 29968 ft | 354 kts | 279° |
| 2026-05-06 09:20 | 45.69862 | 9.57713 | 29158 ft | 351 kts | 279° |
| 2026-05-06 09:20 | 45.70646 | 9.54521 | 28417 ft | 351 kts | 280° |
| 2026-05-06 09:20 | 45.71460 | 9.51226 | 27654 ft | 353 kts | 280° |
| 2026-05-06 09:20 | 45.72268 | 9.47917 | 26877 ft | 352 kts | 280° |
| 2026-05-06 09:21 | 45.73071 | 9.44616 | 26234 ft | 348 kts | 280° |
| 2026-05-06 09:21 | 45.73862 | 9.41362 | 25468 ft | 344 kts | 281° |
| 2026-05-06 09:21 | 45.74636 | 9.38169 | 24740 ft | 342 kts | 281° |
| 2026-05-06 09:21 | 45.75414 | 9.34960 | 24030 ft | 340 kts | 281° |
| 2026-05-06 09:22 | 45.76186 | 9.31770 | 23239 ft | 338 kts | 281° |
| 2026-05-06 09:22 | 45.76957 | 9.28584 | 22379 ft | 337 kts | 281° |
| 2026-05-06 09:22 | 45.77718 | 9.25431 | 21569 ft | 335 kts | 281° |
| 2026-05-06 09:22 | 45.78477 | 9.22287 | 20778 ft | 332 kts | 281° |
| 2026-05-06 09:23 | 45.79229 | 9.19164 | 19981 ft | 330 kts | 282° |
| 2026-05-06 09:23 | 45.79973 | 9.16066 | 19265 ft | 328 kts | 282° |
| 2026-05-06 09:23 | 45.80713 | 9.12985 | 18550 ft | 323 kts | 282° |
| 2026-05-06 09:23 | 45.81437 | 9.09981 | 17804 ft | 315 kts | 282° |
| 2026-05-06 09:24 | 45.82114 | 9.07149 | 17026 ft | 309 kts | 282° |
| 2026-05-06 09:24 | 45.82802 | 9.04262 | 16258 ft | 303 kts | 282° |
| 2026-05-06 09:24 | 45.83480 | 9.01420 | 15493 ft | 298 kts | 282° |
| 2026-05-06 09:24 | 45.84145 | 8.98640 | 14841 ft | 291 kts | 283° |
| 2026-05-06 09:25 | 45.84793 | 8.95928 | 14227 ft | 283 kts | 283° |
| 2026-05-06 09:25 | 45.85412 | 8.93321 | 13634 ft | 274 kts | 283° |
| 2026-05-06 09:25 | 45.86019 | 8.90779 | 12989 ft | 255 kts | 283° |
| 2026-05-06 09:25 | 45.86563 | 8.88505 | 12359 ft | 235 kts | 283° |
| 2026-05-06 09:26 | 45.87084 | 8.86345 | 11729 ft | 227 kts | 285° |
| 2026-05-06 09:26 | 45.88014 | 8.84487 | 11081 ft | 233 kts | 310° |
| 2026-05-06 09:26 | 45.89031 | 8.82678 | 10440 ft | 229 kts | 308° |
| 2026-05-06 09:26 | 45.90132 | 8.81062 | 9814 ft | 227 kts | 301° |
| 2026-05-06 09:27 | 45.90626 | 8.78974 | 9119 ft | 213 kts | 268° |
| 2026-05-06 09:27 | 45.90295 | 8.76985 | 8444 ft | 203 kts | 236° |
| 2026-05-06 09:27 | 45.89301 | 8.75622 | 7800 ft | 198 kts | 207° |
| 2026-05-06 09:27 | 45.88021 | 8.75091 | 7209 ft | 191 kts | 181° |
| 2026-05-06 09:28 | 45.86728 | 8.75411 | 6712 ft | 185 kts | 159° |
| 2026-05-06 09:28 | 45.85681 | 8.76471 | 6220 ft | 192 kts | 136° |
| 2026-05-06 09:28 | 45.85057 | 8.78142 | 5994 ft | 186 kts | 111° |
| 2026-05-06 09:28 | 45.84994 | 8.79969 | 5978 ft | 188 kts | 87° |
| 2026-05-06 09:29 | 45.85519 | 8.81737 | 5973 ft | 199 kts | 59° |
| 2026-05-06 09:29 | 45.86614 | 8.83020 | 5973 ft | 210 kts | 28° |
| 2026-05-06 09:29 | 45.88074 | 8.83326 | 5972 ft | 218 kts | 354° |
| 2026-05-06 09:29 | 45.89438 | 8.82473 | 5977 ft | 215 kts | 322° |
| 2026-05-06 09:30 | 45.90823 | 8.81570 | 5978 ft | 224 kts | 350° |
| 2026-05-06 09:30 | 45.92322 | 8.81721 | 5518 ft | 208 kts | 22° |
| 2026-05-06 09:30 | 45.93396 | 8.82864 | 4972 ft | 183 kts | 60° |
| 2026-05-06 09:30 | 45.93759 | 8.84459 | 4467 ft | 160 kts | 89° |
| 2026-05-06 09:31 | 45.93480 | 8.85926 | 3972 ft | 155 kts | 128° |
| 2026-05-06 09:31 | 45.92610 | 8.86571 | 3966 ft | 153 kts | 173° |
| 2026-05-06 09:31 | 45.91529 | 8.86239 | 4006 ft | 157 kts | 195° |
| 2026-05-06 09:31 | 45.90490 | 8.85591 | 4000 ft | 165 kts | 210° |
| 2026-05-06 09:32 | 45.89736 | 8.84360 | 4006 ft | 167 kts | 228° |
| 2026-05-06 09:32 | 45.89021 | 8.83064 | 4020 ft | 166 kts | 227° |
| 2026-05-06 09:32 | 45.88095 | 8.82095 | 3978 ft | 156 kts | 194° |
| 2026-05-06 09:32 | 45.87049 | 8.82254 | 3984 ft | 154 kts | 155° |
| 2026-05-06 09:33 | 45.86370 | 8.83425 | 3975 ft | 159 kts | 114° |
| 2026-05-06 09:33 | 45.86460 | 8.84999 | 3974 ft | 170 kts | 72° |
| 2026-05-06 09:33 | 45.87303 | 8.86211 | 3966 ft | 176 kts | 31° |
| 2026-05-06 09:33 | 45.88535 | 8.86456 | 3970 ft | 182 kts | 354° |
| 2026-05-06 09:34 | 45.89792 | 8.86277 | 3980 ft | 181 kts | 0° |
| 2026-05-06 09:34 | 45.90991 | 8.86619 | 3990 ft | 176 kts | 21° |
| 2026-05-06 09:34 | 45.92157 | 8.87149 | 3995 ft | 177 kts | 20° |
| 2026-05-06 09:34 | 45.93308 | 8.87680 | 3988 ft | 164 kts | 21° |
| 2026-05-06 09:35 | 45.94351 | 8.88186 | 3500 ft | 153 kts | 22° |
| 2026-05-06 09:35 | 45.95278 | 8.88624 | 3069 ft | 131 kts | 22° |
| 2026-05-06 09:35 | 45.96091 | 8.89009 | 2706 ft | 119 kts | 23° |
| 2026-05-06 09:35 | 45.96871 | 8.89383 | 2333 ft | 117 kts | 20° |
| 2026-05-06 09:36 | 45.97635 | 8.89749 | 1983 ft | 116 kts | 19° |
| 2026-05-06 09:36 | 45.98402 | 8.90113 | 1641 ft | 114 kts | 19° |
| 2026-05-06 09:36 | 45.99147 | 8.90455 | 1298 ft | 111 kts | 17° |
| 2026-05-06 09:36 | 45.99879 | 8.90795 | 943 ft | 111 kts | 17° |
| 2026-05-06 09:37 | 46.00542 | 8.91110 | 901 ft | 85 kts | 20° |
| 2026-05-06 09:37 | 46.00814 | 8.91246 | 895 ft | 23 kts | 18° |
| 2026-05-06 09:37 | 46.00861 | 8.91261 | 895 ft | 2 kts | 47° |
| 2026-05-06 09:37 | 46.00838 | 8.91265 | 895 ft | 7 kts | 200° |
| 2026-05-06 09:38 | 46.00774 | 8.91228 | 896 ft | 13 kts | 201° |
| 2026-05-06 09:38 | 46.00664 | 8.91176 | 897 ft | 20 kts | 199° |
| 2026-05-06 09:38 | 46.00522 | 8.91107 | 901 ft | 17 kts | 198° |
| 2026-05-06 09:38 | 46.00446 | 8.91048 | 900 ft | 12 kts | 252° |
| 2026-05-06 09:39 | 46.00456 | 8.90974 | 897 ft | 7 kts | 261° |
| 2026-05-06 09:39 | 46.00420 | 8.90943 | 897 ft | 9 kts | 199° |
| 2026-05-06 09:39 | 46.00335 | 8.90903 | 897 ft | 17 kts | 198° |
| 2026-05-06 09:39 | 46.00237 | 8.90855 | 897 ft | 6 kts | 198° |
| 2026-05-06 09:40 | 46.00213 | 8.90796 | 897 ft | 9 kts | 289° |
| 2026-05-06 09:40 | 46.00219 | 8.90750 | 897 ft | 3 kts | 256° |
| 2026-05-06 09:40 | 46.00195 | 8.90729 | 897 ft | 3 kts | 200° |
| 2026-05-06 09:41 | 46.00192 | 8.90728 | 897 ft | 0 kts | 200° |